Flight Track Log - Related Links

Times and Time Zones

All times are in EDT time to prevent confusion due to time zone crossing. See the DAL1721 flight status page for this flight to view local times or setup timezone preferences in your user account.

Time Position Orientation Groundspeed Altitude Reporting Facility
EDT Latitude Longitude Course Direction KTS MPH feet Rate Location/Type
Sun 08:18:03 PM 42.1922 -83.3600 199° South 176 203 1,800  Level FAA TRACON SMA TRACON (SMA)
Sun 08:18:43 PM 42.1536 -83.3778 198° South 238 274 2,900 2,325 Climbing FAA TRACON SMA TRACON (SMA)
Sun 08:19:23 PM 42.1081 -83.3972 195° South 262 302 4,900 2,925 Climbing FAA TRACON SMA TRACON (SMA)
Sun 08:20:03 PM 42.0600 -83.4144 192° South 278 320 6,800 3,038 Climbing FAA TRACON SMA TRACON (SMA)
Sun 08:20:42 PM 42.0069 -83.4292 182° South 289 333 8,900 2,886 Climbing FAA TRACON SMA TRACON (SMA)
Sun 08:21:22 PM 41.9525 -83.4314 166° South 302 348 10,600 2,444 Climbing FAA TRACON SMA TRACON (SMA)
Sun 08:22:03 PM 41.8961 -83.4128 167° South 317 365 12,200 1,926 Climbing FAA TRACON SMA TRACON (SMA)
Sun 08:22:43 PM 41.8367 -83.3939 167° South 330 380 13,200 2,175 Climbing FAA TRACON SMA TRACON (SMA)
Sun 08:23:23 PM 41.7739 -83.3739 176° South 336 387 15,100 2,100 Climbing FAA TRACON SMA TRACON (SMA)
Sun 08:24:03 PM 41.7117 -83.3678 199° South 348 400 16,000 1,139 Climbing FAA TRACON SMA TRACON (SMA)
Sun 08:24:42 PM 41.6503 -83.3967 200° South 360 414 16,600 900 Climbing FAA TRACON SMA TRACON (SMA)
Sun 08:25:23 PM 41.5819 -83.4294 200° South 395 455 17,200 1,185 Climbing FAA TRACON SMA TRACON (SMA)
Sun 08:26:03 PM 41.5056 -83.4658 200° South 418 481 18,200 1,650 Climbing FAA TRACON SMA TRACON (SMA)
Sun 08:26:43 PM 41.4333 -83.5006 200° South 423 487 19,400 1,800 Climbing FAA TRACON SMA TRACON (SMA)
Sun 08:27:23 PM 41.3625 -83.5342 199° South 432 497 20,600 1,139 Climbing FAA TRACON SMA TRACON (SMA)
Sun 08:28:02 PM 41.3450 -83.5422 199° South 433 498 20,900 1,643 Climbing FAA TRACON SMA TRACON (SMA)
Sun 08:28:47 PM 41.1881 -83.6156 201° Southwest 441 507 22,900 2,222 Climbing Cleveland Center
Sun 08:29:23 PM 41.1178 -83.6506 202° Southwest 440 506 23,900 1,375 Climbing Indianapolis Center
Sun 08:30:23 PM 41.0136 -83.7056 199° South 440 506 25,100 1,350 Climbing Indianapolis Center
Sun 08:31:23 PM 40.8947 -83.7603 200° South 457 526 26,600 1,300 Climbing Indianapolis Center
Sun 08:32:23 PM 40.7758 -83.8172 200° South 457 526 27,700 1,100 Climbing Indianapolis Center
Sun 08:33:23 PM 40.6550 -83.8744 200° South 457 526 28,800 1,250 Climbing Indianapolis Center
Sun 08:34:23 PM 40.5339 -83.9311 199° South 462 532 30,200 1,100 Climbing Indianapolis Center
Sun 08:35:23 PM 40.4150 -83.9850 199° South 462 532 31,000 350 Climbing Indianapolis Center
Sun 08:36:23 PM 40.2958 -84.0386 189° South 462 532 30,900  Descending Indianapolis Center
Sun 08:37:23 PM 40.1603 -84.0678 187° South 462 532 31,000 50 Climbing Indianapolis Center
Sun 08:38:23 PM 40.0331 -84.0883 186° South 453 521 31,000  Level Indianapolis Center
Sun 08:39:23 PM 39.9081 -84.1064 183° South 453 521 31,000 -50 Level Indianapolis Center
Sun 08:40:23 PM 39.7808 -84.1161 178° South 460 529 30,900  Descending Indianapolis Center
Sun 08:41:23 PM 39.6578 -84.1097 177° South 453 521 31,000 50 Climbing Indianapolis Center
Sun 08:42:23 PM 39.5286 -84.1008 178° South 458 527 31,000  Level Indianapolis Center
Sun 08:43:23 PM 39.4036 -84.0944 177° South 463 533 31,000  Level Indianapolis Center
Sun 08:44:23 PM 39.2764 -84.0856 178° South 458 527 31,000  Level Indianapolis Center
Sun 08:45:23 PM 39.1492 -84.0792 177° South 458 527 31,000  Level Indianapolis Center
Sun 08:46:35 PM 39.0242 -84.0703 178° South 458 527 31,000  Level Indianapolis Center
Sun 08:47:35 PM 38.8719 -84.0639 178° South 458 527 31,000  Level Indianapolis Center
Sun 08:48:35 PM 38.7508 -84.0575 177° South 453 521 31,000  Level Indianapolis Center
Sun 08:49:35 PM 38.6239 -84.0489 178° South 453 521 31,000  Level Indianapolis Center
Sun 08:50:35 PM 38.4986 -84.0428 177° South 453 521 31,000  Level Indianapolis Center
Sun 08:51:35 PM 38.3714 -84.0339 176° South 459 528 31,000  Level Indianapolis Center
Sun 08:52:35 PM 38.2611 -84.0253 179° South 453 521 31,000  Level Indianapolis Center
Sun 08:53:35 PM 38.1317 -84.0217 178° South 458 527 31,000  Level Indianapolis Center
Sun 08:54:35 PM 38.0067 -84.0156 177° South 458 527 31,000  Level Indianapolis Center
Sun 08:55:35 PM 37.8814 -84.0069 178° South 458 527 31,000  Level Indianapolis Center
Sun 08:56:35 PM 37.7542 -84.0008 177° South 458 527 31,000  Level Indianapolis Center
Sun 08:57:35 PM 37.6269 -83.9922 178° South 458 527 31,000  Level Indianapolis Center
Sun 08:58:35 PM 37.4997 -83.9864 178° South 458 527 31,000  Level Indianapolis Center
Sun 09:01:35 PM 37.1222 -83.9661 178° South 458 527 31,000  Level Indianapolis Center
Sun 09:02:35 PM 36.9972 -83.9600 177° South 458 527 31,000  Level Indianapolis Center
Sun 09:07:16 PM 36.4169 -83.9278 175° South 471 542 31,000  Level Atlanta Center
Sun 09:12:16 PM 35.7767 -83.8597 167° South 459 528 31,000  Level Atlanta Center
Sun 09:13:16 PM 35.6533 -83.8242 166° South 464 534 31,000  Level Atlanta Center
Sun 09:14:16 PM 35.5322 -83.7861 166° South 459 528 31,000  Level Atlanta Center
Sun 09:15:16 PM 35.4133 -83.7508 167° South 448 516 31,000  Level Atlanta Center
Sun 09:16:16 PM 35.2922 -83.7156 166° South 448 516 31,000  Level Atlanta Center
Sun 09:17:16 PM 35.1689 -83.6781 166° South 448 516 31,000  Level Atlanta Center
Sun 09:18:16 PM 35.0500 -83.6431 166° South 448 516 31,000  Level Atlanta Center
Sun 09:19:16 PM 34.9267 -83.6056 166° South 448 516 31,000  Level Atlanta Center
Sun 09:20:16 PM 34.8014 -83.5683 167° South 459 528 31,000  Level Atlanta Center
Sun 09:21:16 PM 34.6678 -83.5311 168° South 459 528 31,000  Level Atlanta Center
Sun 09:22:16 PM 34.5464 -83.4992 165° South 451 519 31,000  Level Atlanta Center
Sun 09:23:16 PM 34.4211 -83.4597 168° South 457 526 31,000  Level Atlanta Center
Sun 09:24:16 PM 34.2978 -83.4278 165° South 457 526 31,000  Level Atlanta Center
Sun 09:25:16 PM 34.1725 -83.3886 166° South 452 520 31,000  Level Atlanta Center
Sun 09:26:16 PM 34.0492 -83.3519 167° South 452 520 31,000  Level Atlanta Center
Sun 09:27:16 PM 33.9236 -83.3178 164° South 457 526 31,000  Level Atlanta Center
Sun 09:28:16 PM 33.8003 -83.2764 162° South 451 519 31,000  Level Atlanta Center
Sun 09:29:16 PM 33.6914 -83.2350 164° South 452 520 31,000  Level Atlanta Center
Sun 09:30:16 PM 33.5700 -83.1936 164° South 458 527 31,000  Level Atlanta Center
Sun 09:31:16 PM 33.4425 -83.1500 164° South 458 527 31,000 150 Level Atlanta Center
Sun 09:32:16 PM 33.3189 -83.1067 164° South 458 527 31,300 500 Climbing Atlanta Center
Sun 09:33:16 PM 33.1914 -83.0633 165° South 469 540 32,000 350 Climbing Atlanta Center
Sun 09:34:16 PM 33.0617 -83.0225 164° South 476 548 32,000  Level Atlanta Center
Sun 09:35:16 PM 32.9339 -82.9794 164° South 476 548 32,000  Level Atlanta Center
Sun 09:36:16 PM 32.8083 -82.9367 165° South 476 548 32,000  Level Atlanta Center
Sun 09:37:16 PM 32.6700 -82.8914 163° South 476 548 32,000  Level Atlanta Center
Sun 09:38:16 PM 32.5444 -82.8461 164° South 471 542 32,000  Level Atlanta Center
Sun 09:39:58 PM 32.3314 -82.7744 163° South 451 519 32,000  Level Jacksonville Center
Sun 09:40:58 PM 32.2081 -82.7306 164° South 451 519 32,000  Level Jacksonville Center
Sun 09:41:58 PM 32.0828 -82.6892 164° South 456 525 32,000  Level Jacksonville Center
Sun 09:42:58 PM 31.9597 -82.6478 164° South 456 525 32,000  Level Jacksonville Center
Sun 09:43:58 PM 31.8425 -82.6089 165° South 456 525 32,000  Level Jacksonville Center
Sun 09:44:58 PM 31.7194 -82.5703 164° South 450 518 32,000  Level Jacksonville Center
Sun 09:45:58 PM 31.5981 -82.5292 173° South 455 524 32,000  Level Jacksonville Center
Sun 09:46:58 PM 31.4769 -82.5125 181° South 455 524 32,000  Level Jacksonville Center
Sun 09:47:59 PM 31.3767 -82.5153 183° South 449 517 32,000  Level Jacksonville Center
Sun 09:48:59 PM 31.2328 -82.5233 183° South 437 503 32,000  Level Jacksonville Center
Sun 09:49:58 PM 31.1200 -82.5311 182° South 444 511 32,000  Level Jacksonville Center
Sun 09:50:59 PM 30.9989 -82.5364 182° South 444 511 32,000  Level Jacksonville Center
Sun 09:51:58 PM 30.8778 -82.5417 182° South 439 505 32,000  Level Jacksonville Center
Sun 09:52:59 PM 30.7547 -82.5469 181° South 439 505 32,000  Level Jacksonville Center
Sun 09:53:59 PM 30.6294 -82.5497 181° South 439 505 32,000  Level Jacksonville Center
Sun 09:54:58 PM 30.5042 -82.5525 170° South 445 512 32,000  Level Jacksonville Center
Sun 09:55:58 PM 30.3831 -82.5289 170° South 445 512 32,000  Level Jacksonville Center
Sun 09:56:58 PM 30.2556 -82.5031 169° South 451 519 32,000  Level Jacksonville Center
Sun 09:57:59 PM 30.1342 -82.4769 167° South 451 519 32,000  Level Jacksonville Center
Sun 09:58:59 PM 30.0131 -82.4439 170° South 451 519 32,000  Level Jacksonville Center
Sun 09:59:58 PM 29.8878 -82.4183 170° South 451 519 32,000 -50 Level Jacksonville Center
Sun 10:00:58 PM 29.7625 -82.3925 170° South 451 519 31,900 -650 Descending Jacksonville Center
Sun 10:01:58 PM 29.6369 -82.3669 173° South 451 519 30,700 -1,835 Descending Jacksonville Center
Sun 10:02:59 PM 29.5053 -82.3486 174° South 461 531 28,200 -2,350 Descending Jacksonville Center
Sun 10:03:58 PM 29.3800 -82.3325 175° South 466 536 26,000 -1,563 Descending Jacksonville Center
Sun 10:04:58 PM 29.2547 -82.3189 174° South 459 528 25,100 -1,950 Descending Jacksonville Center
Sun 10:05:58 PM 29.1317 -82.3031 174° South 459 528 22,100 -2,900 Descending Jacksonville Center
Sun 10:06:58 PM 29.0106 -82.2894 175° South 453 521 19,300 -2,842 Descending Jacksonville Center
Sun 10:08:49 PM 28.7833 -82.2667 173° South 403 464 14,000 -2,098 Descending Tampa TRACON
Sun 10:10:01 PM 28.6667 -82.2500 180° South 363 418 12,900 -1,091 Descending Tampa TRACON
Sun 10:11:01 PM 28.5667 -82.2500 180° South 360 414 11,600 -1,050 Descending Tampa TRACON
Sun 10:12:01 PM 28.4667 -82.2500 188° South 357 411 10,800 -800 Descending Tampa TRACON
Sun 10:13:01 PM 28.3667 -82.2667 204° Southwest 328 377 10,000 -1,050 Descending Tampa TRACON
Sun 10:14:01 PM 28.3000 -82.3000 199° South 292 336 8,700 -1,095 Descending Tampa TRACON
Sun 10:15:07 PM 28.2167 -82.3333 196° South 288 331 7,700 -881 Descending Tampa TRACON
Sun 10:15:50 PM 28.1667 -82.3500 199° South 284 327 7,100 -889 Descending Tampa TRACON
Sun 10:16:55 PM 28.0833 -82.3833 192° South 274 315 6,100 -1,009 Descending Tampa TRACON
Sun 10:17:43 PM 28.0167 -82.4000 192° South 271 312 5,200 -606 Descending Tampa TRACON
Sun 10:18:44 PM 27.9500 -82.4167 196° South 233 268 5,000 -496 Descending Tampa TRACON
Sun 10:19:44 PM 27.9000 -82.4333 211° Southwest 211 243 4,200 -952 Descending Tampa TRACON
Sun 10:20:50 PM 27.8500 -82.4667 211° Southwest 193 222 3,000 -1,091 Descending Tampa TRACON

Login

Don't have an account? Register now (free) for customized features, flight alerts, and more!